Time;durP1;ratioP1;P1;durP2;ratioP2;P2;SDS_P1;SDS_P2;PMS_P1;PMS_P2;Temp;Humidity;BMP_temperature;BMP_pressure;BME280_temperature;BME280_humidity;BME280_pressure;Samples;Min_cycle;Max_cycle;Signal;HPM_P1;HPM_P2
2023/07/24 00:01:55;;;;;;;7.05;4.78;;;21.80;99.90;;;;;;5051360;28;20097;-59
2023/07/24 00:04:21;;;;;;;7.32;4.60;;;21.80;99.90;;;;;;5051294;28;20033;-59
2023/07/24 00:06:47;;;;;;;6.90;5.10;;;21.80;99.90;;;;;;5051150;28;20037;-60
2023/07/24 00:09:13;;;;;;;7.05;5.00;;;21.80;99.90;;;;;;5050889;28;20041;-59
2023/07/24 00:11:38;;;;;;;6.82;5.10;;;21.90;99.90;;;;;;5051535;28;20029;-60
2023/07/24 00:14:04;;;;;;;5.13;4.57;;;21.80;99.90;;;;;;5050987;28;20104;-59
2023/07/24 00:16:30;;;;;;;5.78;4.85;;;21.80;99.90;;;;;;5051358;28;20048;-59
2023/07/24 00:18:55;;;;;;;5.40;4.70;;;22.00;99.90;;;;;;5051123;28;20429;-60
2023/07/24 00:21:21;;;;;;;6.82;4.72;;;22.00;99.90;;;;;;5051341;28;20025;-60
2023/07/24 00:23:46;;;;;;;6.18;5.03;;;21.80;99.90;;;;;;5050519;28;20049;-59
2023/07/24 00:26:12;;;;;;;5.30;4.80;;;21.70;99.90;;;;;;5051051;28;20033;-60
2023/07/24 00:28:38;;;;;;;7.00;5.43;;;21.50;99.90;;;;;;5051363;28;20104;-60
2023/07/24 00:31:03;;;;;;;8.18;4.72;;;21.40;99.90;;;;;;5051003;28;20127;-59
2023/07/24 00:33:29;;;;;;;6.38;4.60;;;21.30;99.90;;;;;;5050890;28;20022;-60
2023/07/24 00:35:57;;;;;;;6.68;4.82;;;21.30;99.90;;;;;;5051421;28;20029;-59
2023/07/24 00:38:23;;;;;;;5.88;4.90;;;21.20;99.90;;;;;;5054977;28;20032;-59
2023/07/24 00:40:50;;;;;;;6.40;5.10;;;21.20;99.90;;;;;;5055126;28;20394;-60
2023/07/24 00:43:16;;;;;;;6.22;4.78;;;21.10;99.90;;;;;;5054867;28;20040;-60
2023/07/24 00:45:42;;;;;;;7.05;5.22;;;21.10;99.90;;;;;;5055088;28;20047;-59
2023/07/24 00:48:08;;;;;;;7.30;4.80;;;21.10;99.90;;;;;;5054759;28;20036;-59
2023/07/24 00:50:35;;;;;;;6.25;4.45;;;21.10;99.90;;;;;;5054799;28;20037;-59
2023/07/24 00:53:01;;;;;;;8.18;4.90;;;21.00;99.90;;;;;;5054379;28;20025;-60
2023/07/24 00:55:27;;;;;;;6.10;4.55;;;21.00;99.90;;;;;;5054962;28;20405;-59
2023/07/24 00:57:54;;;;;;;7.93;4.82;;;21.00;99.90;;;;;;5054879;28;20390;-59
2023/07/24 01:00:20;;;;;;;6.10;4.70;;;21.00;99.90;;;;;;5053522;28;20486;-59
2023/07/24 01:02:45;;;;;;;7.28;4.80;;;21.00;99.90;;;;;;5054472;28;20028;-60
2023/07/24 01:05:14;;;;;;;6.68;4.70;;;21.00;99.90;;;;;;5054664;28;20052;-59
2023/07/24 01:07:40;;;;;;;7.28;4.38;;;21.10;99.90;;;;;;5054479;28;20108;-60
2023/07/24 01:10:06;;;;;;;8.38;4.35;;;21.40;99.90;;;;;;5054628;28;20126;-60
2023/07/24 01:12:36;;;;;;;8.52;4.75;;;21.40;99.90;;;;;;5054653;28;20029;-59
2023/07/24 01:15:05;;;;;;;6.20;4.47;;;21.60;99.90;;;;;;5054214;28;20060;-59
2023/07/24 01:17:32;;;;;;;10.43;4.72;;;21.60;99.90;;;;;;5054303;28;20059;-60
2023/07/24 01:20:04;;;;;;;7.35;4.45;;;21.70;99.90;;;;;;5053940;28;20555;-60
2023/07/24 01:22:29;;;;;;;6.68;4.40;;;21.70;99.90;;;;;;5054318;28;20506;-59
2023/07/24 01:25:09;;;;;;;6.97;4.50;;;21.70;99.90;;;;;;5053999;28;20143;-60
2023/07/24 01:27:34;;;;;;;9.30;4.22;;;21.80;99.90;;;;;;5054209;28;20017;-59
2023/07/24 01:30:00;;;;;;;7.22;4.40;;;21.80;99.90;;;;;;5054443;28;20094;-60
2023/07/24 01:32:26;;;;;;;8.98;4.25;;;21.80;99.90;;;;;;5053828;28;20455;-59
2023/07/24 01:34:52;;;;;;;7.15;4.22;;;21.70;99.90;;;;;;5053890;28;20029;-60
2023/07/24 01:37:22;;;;;;;7.65;4.53;;;21.70;99.90;;;;;;5053982;28;20029;-60
2023/07/24 01:39:48;;;;;;;7.20;4.30;;;21.70;99.90;;;;;;5054101;28;20490;-60
2023/07/24 01:42:14;;;;;;;5.60;4.20;;;21.70;99.90;;;;;;5054172;28;20040;-60
2023/07/24 01:44:40;;;;;;;5.70;3.90;;;21.50;99.90;;;;;;5053847;28;20032;-60
2023/07/24 01:47:06;;;;;;;6.50;4.05;;;21.40;99.90;;;;;;5053161;28;20024;-60
2023/07/24 01:49:31;;;;;;;5.55;4.07;;;21.30;99.90;;;;;;5053443;28;20021;-60
2023/07/24 01:51:57;;;;;;;7.85;4.18;;;21.20;99.90;;;;;;5053848;28;20505;-60
2023/07/24 01:54:23;;;;;;;7.63;4.15;;;21.10;99.90;;;;;;5053755;28;20025;-60
2023/07/24 01:56:49;;;;;;;7.40;4.40;;;21.10;99.90;;;;;;5053885;28;20025;-59
2023/07/24 01:59:14;;;;;;;6.55;4.00;;;21.00;99.90;;;;;;5053512;28;20064;-60
2023/07/24 02:01:41;;;;;;;6.47;4.43;;;21.00;99.90;;;;;;5053449;28;20025;-60
2023/07/24 02:04:07;;;;;;;6.38;4.50;;;21.00;99.90;;;;;;5053131;28;20028;-60
2023/07/24 02:06:32;;;;;;;7.50;4.63;;;21.00;99.90;;;;;;5053947;28;20029;-60
2023/07/24 02:08:58;;;;;;;6.47;4.00;;;21.00;99.90;;;;;;5053183;28;20036;-59
2023/07/24 02:11:24;;;;;;;9.13;4.63;;;21.00;99.90;;;;;;5053627;28;20025;-60
2023/07/24 02:13:49;;;;;;;6.65;4.30;;;21.00;99.90;;;;;;5053192;28;20033;-60
2023/07/24 02:16:15;;;;;;;5.82;4.00;;;21.00;99.90;;;;;;5053167;28;20028;-60
2023/07/24 02:18:42;;;;;;;7.55;4.53;;;21.00;99.90;;;;;;5053174;28;20048;-60
2023/07/24 02:21:08;;;;;;;7.32;4.53;;;21.00;99.90;;;;;;5053223;28;20032;-59
2023/07/24 02:23:34;;;;;;;7.57;4.50;;;21.00;99.90;;;;;;5053021;28;20432;-59
2023/07/24 02:26:00;;;;;;;6.85;4.50;;;21.20;99.90;;;;;;5053061;28;20025;-60
2023/07/24 02:28:26;;;;;;;7.32;4.40;;;21.40;99.90;;;;;;5053021;28;20025;-60
2023/07/24 02:30:55;;;;;;;6.65;4.50;;;21.50;99.90;;;;;;5052834;28;20033;-60
2023/07/24 02:33:21;;;;;;;8.57;4.43;;;21.50;99.90;;;;;;5052355;28;20494;-59
2023/07/24 02:35:47;;;;;;;8.13;4.10;;;21.60;99.90;;;;;;5053013;28;20040;-60
2023/07/24 02:38:13;;;;;;;6.30;4.20;;;21.70;99.90;;;;;;5052800;28;20033;-60
2023/07/24 02:40:41;;;;;;;5.70;4.07;;;21.70;99.90;;;;;;5052994;28;20025;-60
2023/07/24 02:43:06;;;;;;;5.65;3.75;;;21.90;99.90;;;;;;5053156;28;20025;-59
2023/07/24 02:45:38;;;;;;;5.60;3.75;;;21.90;99.90;;;;;;5052675;28;20033;-59
2023/07/24 02:48:04;;;;;;;6.07;3.90;;;21.90;99.90;;;;;;5052308;28;20033;-60
2023/07/24 02:50:30;;;;;;;9.65;4.65;;;21.80;99.90;;;;;;5052696;28;20043;-60
2023/07/24 02:52:56;;;;;;;6.75;4.18;;;21.80;99.90;;;;;;5052577;28;20406;-59
2023/07/24 02:55:21;;;;;;;6.25;4.07;;;21.90;99.90;;;;;;5052815;28;20025;-59
2023/07/24 02:57:47;;;;;;;5.45;4.05;;;21.90;99.90;;;;;;5052345;28;20120;-60
2023/07/24 03:00:13;;;;;;;8.18;4.13;;;21.80;99.90;;;;;;5051446;28;20036;-60
2023/07/24 03:02:39;;;;;;;8.50;4.00;;;21.60;99.90;;;;;;5052069;28;20425;-60
2023/07/24 03:05:05;;;;;;;7.72;4.00;;;21.50;99.90;;;;;;5052740;28;20017;-59
2023/07/24 03:07:32;;;;;;;6.28;3.85;;;21.50;99.90;;;;;;5052386;28;20105;-60
2023/07/24 03:09:57;;;;;;;8.48;4.30;;;21.50;99.90;;;;;;5052280;28;20033;-60
2023/07/24 03:12:23;;;;;;;7.03;4.30;;;21.40;99.90;;;;;;5052202;28;20025;-59
2023/07/24 03:14:49;;;;;;;7.82;4.25;;;21.30;99.90;;;;;;5051956;28;20021;-60
2023/07/24 03:17:15;;;;;;;12.82;4.35;;;21.30;99.90;;;;;;5051825;28;20453;-60
2023/07/24 03:19:41;;;;;;;9.15;4.57;;;21.20;99.90;;;;;;5052149;28;20169;-60
2023/07/24 03:22:07;;;;;;;6.95;4.43;;;21.20;99.90;;;;;;5052308;28;20025;-60
2023/07/24 03:24:34;;;;;;;7.72;3.42;;;21.10;99.90;;;;;;5051786;28;20486;-60
2023/07/24 03:27:00;;;;;;;5.60;2.60;;;20.90;99.90;;;;;;5051950;28;20104;-60
2023/07/24 03:29:26;;;;;;;9.52;2.55;;;20.80;99.90;;;;;;5051739;28;20461;-60
2023/07/24 03:31:52;;;;;;;5.05;2.28;;;20.70;99.90;;;;;;5051614;28;20021;-60
2023/07/24 03:34:17;;;;;;;5.70;2.40;;;20.60;99.90;;;;;;5052058;28;20418;-60
2023/07/24 03:36:43;;;;;;;3.83;2.33;;;20.60;99.90;;;;;;5051823;28;20482;-60
2023/07/24 03:39:12;;;;;;;5.55;2.63;;;20.60;99.90;;;;;;5051809;28;20452;-60
2023/07/24 03:41:38;;;;;;;6.03;2.45;;;20.60;99.90;;;;;;5051759;28;20433;-59
2023/07/24 03:44:04;;;;;;;7.00;2.50;;;20.90;99.90;;;;;;5051511;28;20067;-59
2023/07/24 03:46:32;;;;;;;6.22;2.80;;;21.00;99.90;;;;;;5051295;28;20033;-60
2023/07/24 03:48:58;;;;;;;6.45;2.60;;;21.20;99.90;;;;;;5051802;28;20040;-60
2023/07/24 03:51:24;;;;;;;7.40;2.90;;;21.40;99.90;;;;;;5051822;28;20378;-60
2023/07/24 03:53:50;;;;;;;4.60;2.67;;;21.40;99.90;;;;;;5051618;28;20032;-59
2023/07/24 03:56:15;;;;;;;8.43;3.65;;;21.30;99.90;;;;;;5051352;28;20397;-60
2023/07/24 03:58:41;;;;;;;5.28;2.75;;;21.30;99.90;;;;;;5051388;28;20568;-59
2023/07/24 04:01:08;;;;;;;5.70;2.67;;;21.30;99.90;;;;;;5051030;28;20064;-59
2023/07/24 04:03:34;;;;;;;4.57;2.53;;;21.30;99.90;;;;;;5051323;28;20040;-58
2023/07/24 04:06:00;;;;;;;5.88;2.40;;;21.40;99.90;;;;;;5051294;28;20033;-60
2023/07/24 04:08:25;;;;;;;4.07;2.20;;;21.30;99.90;;;;;;5051374;28;20044;-60
2023/07/24 04:10:51;;;;;;;5.43;2.10;;;21.30;99.90;;;;;;5050859;28;20045;-60
2023/07/24 04:13:16;;;;;;;7.75;2.20;;;21.30;99.90;;;;;;5051325;28;20116;-60
2023/07/24 04:15:44;;;;;;;7.25;2.90;;;21.20;99.90;;;;;;5050931;28;20029;-60
2023/07/24 04:18:10;;;;;;;6.55;2.35;;;21.00;99.90;;;;;;5051103;28;20021;-60
2023/07/24 04:20:35;;;;;;;4.53;2.30;;;20.80;99.90;;;;;;5049887;28;20440;-59
2023/07/24 04:23:01;;;;;;;7.07;2.65;;;20.60;99.90;;;;;;5051150;28;20063;-60
2023/07/24 04:25:27;;;;;;;4.07;1.85;;;20.60;99.90;;;;;;5050824;28;20545;-61
2023/07/24 04:27:52;;;;;;;4.75;2.20;;;20.50;99.90;;;;;;5051069;28;20024;-60
2023/07/24 04:30:18;;;;;;;5.93;2.17;;;20.50;99.90;;;;;;5050671;28;20452;-61
2023/07/24 04:32:44;;;;;;;7.60;2.20;;;20.50;99.90;;;;;;5051278;28;20473;-61
2023/07/24 04:35:09;;;;;;;6.03;2.30;;;20.40;99.90;;;;;;5051093;28;20025;-60
2023/07/24 04:37:35;;;;;;;7.68;2.17;;;20.40;99.90;;;;;;5050945;28;20025;-59
2023/07/24 04:40:01;;;;;;;6.47;2.20;;;20.40;99.90;;;;;;5050849;28;20040;-60
2023/07/24 04:42:27;;;;;;;4.70;1.88;;;20.40;99.90;;;;;;5050933;28;20421;-60
2023/07/24 04:44:52;;;;;;;6.97;2.10;;;20.40;99.90;;;;;;5050575;28;20057;-60
2023/07/24 04:47:18;;;;;;;5.10;1.85;;;20.30;99.90;;;;;;5050843;28;20534;-60
2023/07/24 04:49:44;;;;;;;4.75;1.90;;;20.40;99.90;;;;;;5050904;28;20406;-61
2023/07/24 04:52:09;;;;;;;4.60;1.80;;;20.40;99.90;;;;;;5051200;28;20056;-60
2023/07/24 04:54:35;;;;;;;4.25;1.80;;;20.40;99.90;;;;;;5050863;28;20036;-60
2023/07/24 04:57:00;;;;;;;5.80;1.98;;;20.40;99.90;;;;;;5050666;28;20036;-61
2023/07/24 04:59:26;;;;;;;5.32;1.75;;;20.40;99.90;;;;;;5050332;28;20029;-61
2023/07/24 05:01:52;;;;;;;6.22;1.90;;;20.60;99.90;;;;;;5051121;28;20028;-60
2023/07/24 05:04:17;;;;;;;5.05;1.83;;;20.80;99.90;;;;;;5050647;28;20099;-60
2023/07/24 05:06:43;;;;;;;5.05;2.17;;;21.10;99.90;;;;;;5050660;28;20029;-60
2023/07/24 05:09:09;;;;;;;5.70;2.10;;;21.20;99.90;;;;;;5050530;28;20021;-60
2023/07/24 05:11:34;;;;;;;4.97;1.88;;;21.30;99.90;;;;;;5049783;28;20037;-60
2023/07/24 05:14:00;;;;;;;5.38;1.83;;;21.30;99.90;;;;;;5050060;28;20033;-60
2023/07/24 05:16:26;;;;;;;4.53;2.17;;;21.40;99.90;;;;;;5050845;28;20111;-60
2023/07/24 05:18:51;;;;;;;7.20;2.03;;;21.40;99.90;;;;;;5050388;28;20021;-60
2023/07/24 05:21:17;;;;;;;3.90;1.88;;;21.40;99.90;;;;;;5050513;28;20060;-61
2023/07/24 05:23:42;;;;;;;5.32;2.10;;;21.40;99.90;;;;;;5053233;28;20114;-60
2023/07/24 05:26:08;;;;;;;4.28;2.17;;;21.30;99.90;;;;;;5054185;28;20032;-60
2023/07/24 05:28:34;;;;;;;5.90;2.10;;;21.30;99.90;;;;;;5054267;28;20025;-60
2023/07/24 05:31:01;;;;;;;5.03;2.08;;;21.40;99.90;;;;;;5054021;28;20555;-61
2023/07/24 05:33:27;;;;;;;5.80;2.25;;;21.30;99.90;;;;;;5054058;28;20028;-60
2023/07/24 05:35:58;;;;;;;5.80;2.42;;;21.20;99.90;;;;;;5054084;28;20033;-60
2023/07/24 05:38:23;;;;;;;7.43;2.38;;;21.10;99.90;;;;;;5054338;28;20541;-60
2023/07/24 05:40:57;;;;;;;6.47;2.45;;;20.90;99.90;;;;;;5053683;28;20104;-60
2023/07/24 05:43:23;;;;;;;8.50;2.47;;;20.80;99.90;;;;;;5053804;28;20436;-61
2023/07/24 05:45:51;;;;;;;7.70;2.60;;;20.60;99.90;;;;;;5053948;28;20021;-61
2023/07/24 05:48:16;;;;;;;4.75;2.10;;;20.60;99.90;;;;;;5053763;28;20444;-60
2023/07/24 05:50:42;;;;;;;7.43;2.45;;;20.60;99.90;;;;;;5053695;28;20059;-60
2023/07/24 05:53:08;;;;;;;7.50;2.70;;;20.50;99.90;;;;;;5053760;28;20109;-60
2023/07/24 05:55:33;;;;;;;5.35;2.50;;;20.60;99.90;;;;;;5053303;28;20029;-61
2023/07/24 05:57:59;;;;;;;5.97;2.30;;;20.50;99.90;;;;;;5053672;28;20429;-61
2023/07/24 06:00:25;;;;;;;4.90;2.28;;;20.50;99.90;;;;;;5053684;28;20036;-61
2023/07/24 06:02:50;;;;;;;6.05;2.40;;;20.50;99.90;;;;;;5053828;28;20171;-60
2023/07/24 06:05:16;;;;;;;6.60;2.58;;;20.50;99.90;;;;;;5053633;28;20450;-60
2023/07/24 06:07:41;;;;;;;7.68;2.50;;;20.40;99.90;;;;;;5053350;28;20052;-59
2023/07/24 06:10:08;;;;;;;5.97;2.40;;;20.50;99.90;;;;;;5052916;28;20048;-61
2023/07/24 06:12:33;;;;;;;8.23;2.50;;;20.50;99.90;;;;;;5053427;28;20405;-61
2023/07/24 06:14:59;;;;;;;8.20;2.65;;;20.40;99.90;;;;;;5053482;28;20033;-60
2023/07/24 06:17:24;;;;;;;5.03;2.30;;;20.60;99.90;;;;;;5053176;28;20112;-60
2023/07/24 06:19:50;;;;;;;7.53;2.30;;;20.80;99.90;;;;;;5053302;28;20091;-60
2023/07/24 06:22:16;;;;;;;6.47;2.30;;;21.00;99.90;;;;;;5053002;28;20053;-60
2023/07/24 06:24:41;;;;;;;8.88;2.63;;;21.20;99.90;;;;;;5052536;28;20056;-59
2023/07/24 06:27:07;;;;;;;7.18;2.40;;;21.30;99.90;;;;;;5053100;28;20033;-60
2023/07/24 06:29:33;;;;;;;8.82;2.40;;;21.40;99.90;;;;;;5052979;28;20460;-60
2023/07/24 06:31:59;;;;;;;6.13;2.20;;;21.40;99.90;;;;;;5053407;28;20429;-60
2023/07/24 06:34:24;;;;;;;6.32;2.53;;;21.40;99.90;;;;;;5052816;28;20051;-60
2023/07/24 06:36:50;;;;;;;4.97;2.38;;;21.50;99.90;;;;;;5052846;28;20022;-60
2023/07/24 06:39:16;;;;;;;5.75;2.25;;;21.60;99.90;;;;;;5052537;28;20025;-60
2023/07/24 06:41:41;;;;;;;5.50;2.25;;;21.50;99.90;;;;;;5052863;28;20039;-60
2023/07/24 06:44:07;;;;;;;4.88;2.35;;;21.60;99.90;;;;;;5052683;28;20029;-60
2023/07/24 06:46:33;;;;;;;5.43;2.33;;;21.60;99.90;;;;;;5053057;28;20493;-60
2023/07/24 06:48:59;;;;;;;4.68;2.20;;;21.60;99.90;;;;;;5052624;28;20047;-60
2023/07/24 06:51:24;;;;;;;6.40;2.55;;;21.50;99.90;;;;;;5052491;28;20025;-60
2023/07/24 06:53:50;;;;;;;5.13;2.33;;;21.40;99.90;;;;;;5052247;28;20394;-60
2023/07/24 06:56:15;;;;;;;3.50;1.80;;;21.40;99.90;;;;;;5053008;28;20028;-60
2023/07/24 06:58:41;;;;;;;4.63;2.10;;;21.40;99.90;;;;;;5052410;28;20436;-60
2023/07/24 07:01:07;;;;;;;5.13;1.80;;;21.30;99.90;;;;;;5052523;28;20037;-60
2023/07/24 07:03:34;;;;;;;3.72;1.52;;;21.30;99.90;;;;;;5052465;28;20032;-60
2023/07/24 07:06:01;;;;;;;5.90;2.10;;;21.20;99.90;;;;;;5052117;28;20486;-60
2023/07/24 07:08:27;;;;;;;6.65;2.10;;;21.00;99.90;;;;;;5051900;28;20040;-59
2023/07/24 07:11:00;;;;;;;7.57;2.35;;;20.80;99.90;;;;;;5052229;28;20033;-59
2023/07/24 07:13:26;;;;;;;8.45;2.67;;;20.60;99.90;;;;;;5052381;28;20048;-60
2023/07/24 07:15:51;;;;;;;5.68;2.65;;;20.50;99.90;;;;;;5052137;28;20029;-60
2023/07/24 07:18:17;;;;;;;5.05;2.35;;;20.30;99.90;;;;;;5051874;28;20025;-59
2023/07/24 07:20:50;;;;;;;7.07;2.65;;;20.20;99.90;;;;;;5052020;28;20445;-60
2023/07/24 07:23:16;;;;;;;6.57;2.60;;;20.10;99.90;;;;;;5051752;28;20128;-60
2023/07/24 07:25:45;;;;;;;6.10;2.85;;;20.00;99.90;;;;;;5051822;28;20064;-60
2023/07/24 07:28:14;;;;;;;6.43;2.65;;;20.00;99.90;;;;;;5051933;28;20036;-60
2023/07/24 07:30:41;;;;;;;6.53;2.63;;;20.00;99.90;;;;;;5051795;28;20337;-60
2023/07/24 07:33:08;;;;;;;5.30;2.50;;;20.10;99.90;;;;;;5052079;28;20049;-60
2023/07/24 07:35:35;;;;;;;7.68;2.97;;;20.30;99.90;;;;;;5050375;28;20390;-60
2023/07/24 07:38:02;;;;;;;6.82;2.67;;;20.60;99.90;;;;;;5051387;28;20044;-60
2023/07/24 07:40:28;;;;;;;7.03;2.80;;;20.70;99.90;;;;;;5051792;28;20032;-60
2023/07/24 07:42:54;;;;;;;4.75;2.28;;;20.80;99.90;;;;;;5051915;28;20037;-60
2023/07/24 07:45:21;;;;;;;6.47;2.53;;;20.90;99.90;;;;;;5051212;28;20095;-60
2023/07/24 07:47:47;;;;;;;6.05;2.33;;;20.90;99.90;;;;;;5051590;28;20017;-60
2023/07/24 07:50:13;;;;;;;4.45;2.20;;;21.00;99.90;;;;;;5051786;28;20048;-60
2023/07/24 07:52:39;;;;;;;5.65;2.47;;;21.10;99.90;;;;;;5051413;28;20021;-60
2023/07/24 07:55:08;;;;;;;5.55;2.30;;;21.10;99.90;;;;;;5051472;28;20405;-60
2023/07/24 07:57:37;;;;;;;4.68;2.30;;;21.10;99.90;;;;;;5051478;28;20029;-60
2023/07/24 08:00:05;;;;;;;3.95;2.17;;;21.20;99.90;;;;;;5051413;28;20048;-60
2023/07/24 08:02:32;;;;;;;3.88;1.92;;;21.20;99.90;;;;;;5051827;28;20100;-60
2023/07/24 08:04:58;;;;;;;7.22;2.30;;;21.20;99.90;;;;;;5051212;28;20108;-61
2023/07/24 08:07:24;;;;;;;3.53;2.00;;;21.10;99.90;;;;;;5050896;28;20509;-60
2023/07/24 08:09:50;;;;;;;4.28;2.03;;;21.10;99.90;;;;;;5051186;28;20040;-60
2023/07/24 08:12:16;;;;;;;5.05;2.20;;;21.10;99.90;;;;;;5051117;28;20044;-60
2023/07/24 08:14:41;;;;;;;5.60;2.55;;;21.00;99.90;;;;;;5051457;28;20033;-60
2023/07/24 08:17:07;;;;;;;3.95;1.95;;;21.00;99.90;;;;;;5051270;28;20519;-60
2023/07/24 08:19:33;;;;;;;4.03;1.98;;;21.00;99.90;;;;;;5050925;28;20025;-60
2023/07/24 08:21:59;;;;;;;6.18;2.20;;;21.00;99.90;;;;;;5050752;28;20025;-60
2023/07/24 08:24:25;;;;;;;6.47;2.00;;;21.00;99.90;;;;;;5051327;28;20112;-60
2023/07/24 08:26:50;;;;;;;5.97;2.20;;;21.00;99.90;;;;;;5050987;28;20128;-60
2023/07/24 08:29:16;;;;;;;3.20;2.00;;;21.20;99.90;;;;;;5050774;28;20549;-60
2023/07/24 08:31:42;;;;;;;4.78;2.40;;;21.30;99.90;;;;;;5051194;28;20484;-60
2023/07/24 08:34:07;;;;;;;6.50;2.65;;;21.30;99.90;;;;;;5051297;28;20017;-60
2023/07/24 08:36:33;;;;;;;6.18;2.90;;;21.30;99.90;;;;;;5050638;28;20032;-60
2023/07/24 08:38:59;;;;;;;5.20;2.90;;;21.30;99.90;;;;;;5050897;28;20052;-60
2023/07/24 08:41:25;;;;;;;8.00;3.45;;;21.30;99.90;;;;;;5051025;28;20032;-60
2023/07/24 08:43:51;;;;;;;7.05;3.30;;;21.30;99.90;;;;;;5050952;28;20044;-60
2023/07/24 08:46:18;;;;;;;9.30;3.20;;;21.30;99.90;;;;;;5051013;28;20032;-61
2023/07/24 08:48:44;;;;;;;8.75;3.47;;;21.40;99.90;;;;;;5051085;28;20108;-61
2023/07/24 08:51:12;;;;;;;10.15;3.63;;;21.70;99.90;;;;;;5050573;28;20108;-60
2023/07/24 08:53:40;;;;;;;7.47;3.78;;;21.80;99.90;;;;;;5050892;28;20098;-60
2023/07/24 08:56:08;;;;;;;8.07;3.60;;;21.90;99.90;;;;;;5050778;28;20100;-60
2023/07/24 08:58:34;;;;;;;9.27;3.42;;;21.80;99.90;;;;;;5053685;28;20029;-60
2023/07/24 09:01:01;;;;;;;7.95;3.50;;;21.90;99.90;;;;;;5054818;28;20028;-61
2023/07/24 09:03:28;;;;;;;8.63;3.72;;;22.10;99.90;;;;;;5054733;28;20032;-60
2023/07/24 09:05:54;;;;;;;7.22;3.58;;;22.10;99.90;;;;;;5054437;28;20017;-60
2023/07/24 09:08:49;;;;;;;10.02;3.90;;;22.20;99.90;;;;;;5054610;28;20099;-59
2023/07/24 09:11:15;;;;;;;8.80;3.80;;;22.20;99.90;;;;;;5049743;28;20502;-60
2023/07/24 09:13:43;;;;;;;10.55;4.47;;;22.20;99.90;;;;;;5054306;28;20473;-60
2023/07/24 09:16:20;;;;;;;10.95;4.28;;;22.20;99.90;;;;;;5054420;28;20044;-60
2023/07/24 09:18:45;;;;;;;9.02;4.05;;;22.40;99.90;;;;;;5054001;28;20090;-60
2023/07/24 09:21:12;;;;;;;11.18;3.90;;;22.50;99.90;;;;;;5054406;28;20084;-60
2023/07/24 09:23:43;;;;;;;9.32;4.07;;;22.40;99.90;;;;;;5054025;28;20056;-60
2023/07/24 09:26:09;;;;;;;10.70;3.90;;;22.20;99.90;;;;;;5054118;28;20048;-60
2023/07/24 09:28:35;;;;;;;7.70;3.47;;;22.10;99.90;;;;;;5054280;28;20028;-60
2023/07/24 09:31:01;;;;;;;9.07;3.95;;;21.90;99.90;;;;;;5054011;28;20033;-60
2023/07/24 09:33:37;;;;;;;11.45;3.42;;;21.90;99.90;;;;;;5053773;28;20116;-60
2023/07/24 09:36:04;;;;;;;7.85;3.72;;;21.90;99.90;;;;;;5053942;28;20098;-60
2023/07/24 09:38:30;;;;;;;9.98;3.72;;;22.00;99.90;;;;;;5054607;28;20017;-60
2023/07/24 09:40:57;;;;;;;8.38;3.83;;;22.00;99.90;;;;;;5054051;28;20021;-60
2023/07/24 09:43:27;;;;;;;7.97;3.60;;;22.10;99.90;;;;;;5054106;28;20021;-60
2023/07/24 09:45:54;;;;;;;10.25;3.80;;;22.30;99.90;;;;;;5054260;28;20055;-60
2023/07/24 09:48:25;;;;;;;9.50;3.63;;;22.30;99.90;;;;;;5053492;28;20023;-60
2023/07/24 09:50:55;;;;;;;9.05;3.25;;;22.30;99.90;;;;;;5053742;28;20049;-61
2023/07/24 09:53:38;;;;;;;9.45;3.70;;;22.30;99.90;;;;;;5053809;28;20033;-61
2023/07/24 09:56:08;;;;;;;8.23;3.40;;;22.20;99.90;;;;;;5053797;28;20029;-61
2023/07/24 09:58:36;;;;;;;6.75;3.03;;;22.40;99.90;;;;;;5053781;28;20108;-60
2023/07/24 10:01:05;;;;;;;8.38;3.72;;;22.30;99.90;;;;;;5053853;28;20025;-60
2023/07/24 10:03:34;;;;;;;9.35;3.20;;;22.40;99.90;;;;;;5053085;28;20501;-60
2023/07/24 10:06:00;;;;;;;9.00;3.33;;;22.40;99.90;;;;;;5053452;28;20025;-60
2023/07/24 10:08:27;;;;;;;7.55;3.83;;;22.60;99.90;;;;;;5053269;28;20090;-60
2023/07/24 10:10:53;;;;;;;12.20;3.53;;;22.80;99.90;;;;;;5053695;28;20075;-60
2023/07/24 10:13:21;;;;;;;9.27;3.95;;;23.10;99.90;;;;;;5053262;28;20572;-60
2023/07/24 10:15:48;;;;;;;9.77;3.47;;;23.10;99.90;;;;;;5053280;28;20509;-60
2023/07/24 10:18:16;;;;;;;8.77;3.40;;;23.20;99.90;;;;;;5052934;28;20507;-60
2023/07/24 10:20:42;;;;;;;7.72;3.03;;;23.20;99.90;;;;;;5053749;28;20017;-60
2023/07/24 10:23:09;;;;;;;8.15;3.28;;;23.00;99.90;;;;;;5053337;28;20528;-60
2023/07/24 10:25:43;;;;;;;9.32;3.22;;;22.90;99.90;;;;;;5052968;28;20045;-60
2023/07/24 10:28:16;;;;;;;9.23;3.50;;;22.90;99.90;;;;;;5053315;28;20032;-60
2023/07/24 10:30:42;;;;;;;9.43;3.57;;;23.10;99.90;;;;;;5052562;28;20090;-60
2023/07/24 10:33:16;;;;;;;10.38;3.90;;;23.10;99.90;;;;;;5053142;28;20780;-60
2023/07/24 10:35:46;;;;;;;9.18;3.10;;;23.10;99.90;;;;;;5052949;28;20422;-60
2023/07/24 10:38:13;;;;;;;9.70;3.42;;;23.30;99.90;;;;;;5051592;28;20079;-61
2023/07/24 10:40:40;;;;;;;7.25;3.40;;;23.20;99.90;;;;;;5053169;28;20021;-61
2023/07/24 10:43:11;;;;;;;12.00;3.60;;;23.20;99.90;;;;;;5052748;28;20035;-60
2023/07/24 10:45:48;;;;;;;9.80;3.47;;;23.20;99.90;;;;;;5051172;28;20029;-60
2023/07/24 10:48:14;;;;;;;6.30;2.95;;;23.20;99.90;;;;;;5052705;28;20497;-60
2023/07/24 10:50:42;;;;;;;7.88;3.00;;;23.00;99.90;;;;;;5052765;28;20032;-60
2023/07/24 10:53:13;;;;;;;7.85;3.30;;;23.00;99.90;;;;;;5052595;28;20021;-60
2023/07/24 10:55:39;;;;;;;6.82;2.60;;;23.20;99.90;;;;;;5052693;28;20036;-60
2023/07/24 10:58:06;;;;;;;7.43;2.63;;;23.00;99.90;;;;;;5052391;28;20021;-60
2023/07/24 11:00:31;;;;;;;6.47;2.70;;;23.00;99.90;;;;;;5052298;28;20061;-60
2023/07/24 11:02:57;;;;;;;6.72;2.67;;;23.10;99.90;;;;;;5052704;28;20130;-60
2023/07/24 11:05:24;;;;;;;7.28;3.13;;;23.10;99.90;;;;;;5052478;28;20036;-61
2023/07/24 11:07:49;;;;;;;9.50;2.70;;;23.00;99.90;;;;;;5052439;28;20514;-60
2023/07/24 11:10:16;;;;;;;7.05;2.83;;;23.10;99.90;;;;;;5052230;28;20041;-60
2023/07/24 11:12:41;;;;;;;5.60;2.72;;;23.10;99.90;;;;;;5051978;28;20028;-61
2023/07/24 11:15:07;;;;;;;9.43;3.10;;;23.20;99.90;;;;;;5052254;28;20650;-61
2023/07/24 11:17:40;;;;;;;6.80;3.08;;;23.20;99.90;;;;;;5052275;28;20551;-60
2023/07/24 11:20:13;;;;;;;7.30;2.88;;;23.20;99.90;;;;;;5031447;28;20026;-60
2023/07/24 11:22:40;;;;;;;;;;;23.10;99.90;;;;;;5031255;28;20025;-60
2023/07/24 11:25:06;;;;;;;6.50;2.60;;;23.10;99.90;;;;;;5032018;28;19921;-60
2023/07/24 11:27:33;;;;;;;7.68;2.90;;;23.30;99.90;;;;;;5032012;28;20035;-60
2023/07/24 11:29:58;;;;;;;6.53;3.00;;;23.50;99.90;;;;;;5031749;28;20044;-58
2023/07/24 11:32:24;;;;;;;7.13;3.10;;;23.80;99.90;;;;;;5032256;28;20494;-60
2023/07/24 11:34:52;;;;;;;5.65;2.50;;;23.90;99.90;;;;;;5031949;28;20029;-60
2023/07/24 11:37:18;;;;;;;6.65;2.70;;;24.00;99.90;;;;;;5031955;28;20544;-61
2023/07/24 11:39:56;;;;;;;5.18;2.47;;;24.00;99.90;;;;;;5032355;28;20029;-60
2023/07/24 11:42:27;;;;;;;8.65;2.67;;;24.00;99.90;;;;;;5031610;28;20017;-60
2023/07/24 11:44:53;;;;;;;8.70;2.35;;;24.10;99.90;;;;;;5031408;28;20094;-60
2023/07/24 11:47:20;;;;;;;5.97;2.55;;;24.10;99.90;;;;;;5031736;28;20025;-60
2023/07/24 11:50:02;;;;;;;6.13;2.65;;;24.10;99.90;;;;;;5031667;28;20033;-60
2023/07/24 11:52:43;;;;;;;7.22;2.95;;;24.20;99.90;;;;;;5031861;28;20442;-60
2023/07/24 11:55:13;;;;;;;7.05;2.35;;;24.00;99.90;;;;;;5031653;28;20112;-59
2023/07/24 11:57:38;;;;;;;7.10;2.70;;;24.10;99.90;;;;;;5031729;28;20483;-60
2023/07/24 12:00:06;;;;;;;6.65;2.47;;;24.10;99.90;;;;;;5031417;28;20032;-60
2023/07/24 12:02:33;;;;;;;4.75;2.25;;;23.90;99.90;;;;;;5031283;28;20026;-60
2023/07/24 12:05:00;;;;;;;7.43;2.45;;;23.80;99.90;;;;;;5031697;28;20059;-60
2023/07/24 12:07:34;;;;;;;7.28;2.67;;;23.80;99.90;;;;;;5031733;28;20025;-60
2023/07/24 12:10:04;;;;;;;6.38;2.92;;;23.70;99.90;;;;;;5031372;28;20030;-59
2023/07/24 12:12:48;;;;;;;8.30;2.63;;;23.60;99.90;;;;;;5031064;28;20017;-60
2023/07/24 12:15:14;;;;;;;8.60;3.45;;;23.60;99.90;;;;;;5031339;28;20108;-60
2023/07/24 12:17:41;;;;;;;7.65;2.90;;;23.50;99.90;;;;;;5031631;28;20052;-60
2023/07/24 12:20:09;;;;;;;6.93;2.40;;;23.60;99.90;;;;;;5051266;28;20021;-60
2023/07/24 12:22:36;;;;;;;7.35;2.70;;;23.80;99.90;;;;;;5051080;28;20025;-60
2023/07/24 12:25:03;;;;;;;7.68;2.50;;;23.80;99.90;;;;;;5051391;28;20113;-60
2023/07/24 12:27:29;;;;;;;7.35;2.33;;;23.60;99.90;;;;;;5050748;28;20082;-60
2023/07/24 12:29:55;;;;;;;8.77;2.65;;;23.80;99.90;;;;;;5051050;28;20493;-60
2023/07/24 12:32:22;;;;;;;7.53;2.50;;;23.80;99.90;;;;;;5055791;28;20031;-60
2023/07/24 12:34:49;;;;;;;4.93;2.50;;;23.70;99.90;;;;;;5057597;28;20036;-60
2023/07/24 12:37:15;;;;;;;5.57;2.53;;;23.80;99.90;;;;;;5057685;28;20389;-60
2023/07/24 12:39:41;;;;;;;4.40;2.35;;;23.50;99.90;;;;;;5057899;28;20029;-60
2023/07/24 12:42:07;;;;;;;7.82;2.85;;;23.50;99.90;;;;;;5057297;28;20437;-59
2023/07/24 12:44:33;;;;;;;5.28;2.53;;;23.70;99.90;;;;;;5057841;28;20048;-59